Startpagina
METAR-TAF:

METAR-TAF

Vliegvelden :

Barranquilla, Colombia

breedte: 10-53N, lengte: 074-47W, hoogte: 14 m

Actueel weer

Dit bericht is 25 minuten geleden gemaakt, om 13:00 UTC
Wind 6 kt uit het oosten
Temperatuur 27°C
Vochtigheid 94%
Druk 1013 hPa
Zicht: 5000 m
Gebroken wolken op 1200 ft
nevel

METAR: SKBQ 171300Z 10006KT 5000 BR BKN012 27/26 A2990

Tijdstip: 08:25 (13:25 UTC)

Verwachting

Dit bericht is 2 uur en het 25 minuten geleden gemaakt, om 11:00 UTC
Verwachting geldig van 17 om 12 UTC tot 18 om 12 UTC
Wind 10 kt uit het noordoosten
Zicht 10 km of meer
Weinig wolken op 2000 ft
Verspreide wolken op 8000 ft
Tijdelijke
van 17 om 12 UTC tot 17 om 13 UTC
Zicht: 5000 m
Verspreide wolken op 1500 ft
nevel
Wijzigt naar
van 17 om 16 UTC tot 17 om 17 UTC
Wind 14 kt uit het noordnoordwesten

TAF: SKBQ 171100Z 1712/1812 05010KT 9999 FEW020 SCT080 TEMPO 1712/1713 5000 BR SCT015 BECMG 1716/1717 34014KT TX35/1718Z TN25/1811Z

Waarnemingen en weersverwachtingen van meer dan 4000 vliegvelden (METAR en TAF).

De beschikbare stations zijn de gele en rode punten op de kaart.

Ga met uw muis naar het station om de naam te zien.

Klik dan om waarnemingen en weersverwachtingen te zien.

kaart wijzigen: klik op de groene knoppen met een zwart kruis om in te zoomen, op de groene knop met een streepje om uit te zoomen of op de groene pijlen voor aangrenzende kaarten.


METAR-TAF: